Ono-I-Lau, Fiji
Current Conditions -  °F | °C
As of 3:00 PM on Sunday 26 Oct 2014 (Local Time) from NFTF Reporting Station
Broken Clouds Broken Clouds  
Wind Chill: 77°   Ceiling: 27000
Heat Index: 79°   Visibility: 6mi
Dew Point: 63°   Wind: 9mph
Humidity: 61%   Direction: 150°SSE
Pressure: 29.91"   Gusts: NA
Location:  20.67°S, 178.72°W
Report Text: NFTF 260300Z 15008KT 9999 FEW018TCU BKN270 25/17 Q1013
Loading
Personal Weather Stations






























Interactive Weather Map
Tropical Storm Tracking
New forecast layout! Learn more

10-Day Weather Forecast

Advertisements
Track Severe Weather on mobile